sensor_id;sensor_type;location;lat;lon;timestamp;temperature;humidity
57218;DHT22;43078;52.972;6.482;2023-03-05T00:00:03;4.90;99.90
57218;DHT22;43078;52.972;6.482;2023-03-05T00:02:29;4.80;99.90
57218;DHT22;43078;52.972;6.482;2023-03-05T00:04:56;4.80;99.90
57218;DHT22;43078;52.972;6.482;2023-03-05T00:07:21;4.80;99.90
57218;DHT22;43078;52.972;6.482;2023-03-05T00:09:47;4.80;99.90
57218;DHT22;43078;52.972;6.482;2023-03-05T00:12:13;4.80;99.90
57218;DHT22;43078;52.972;6.482;2023-03-05T00:14:39;4.80;99.90
57218;DHT22;43078;52.972;6.482;2023-03-05T00:17:04;4.80;99.90
57218;DHT22;43078;52.972;6.482;2023-03-05T00:19:30;4.80;99.90
57218;DHT22;43078;52.972;6.482;2023-03-05T00:21:55;4.80;99.90
57218;DHT22;43078;52.972;6.482;2023-03-05T00:24:21;4.80;99.90
57218;DHT22;43078;52.972;6.482;2023-03-05T00:26:47;4.80;99.90
57218;DHT22;43078;52.972;6.482;2023-03-05T00:29:15;4.70;99.90
57218;DHT22;43078;52.972;6.482;2023-03-05T00:31:42;4.80;99.90
57218;DHT22;43078;52.972;6.482;2023-03-05T00:34:12;4.80;99.90
57218;DHT22;43078;52.972;6.482;2023-03-05T00:36:44;4.80;99.90
57218;DHT22;43078;52.972;6.482;2023-03-05T00:39:10;4.80;99.90
57218;DHT22;43078;52.972;6.482;2023-03-05T00:41:37;4.80;99.90
57218;DHT22;43078;52.972;6.482;2023-03-05T00:44:03;4.80;99.90
57218;DHT22;43078;52.972;6.482;2023-03-05T00:46:28;4.80;99.90
57218;DHT22;43078;52.972;6.482;2023-03-05T00:48:54;4.80;99.90
57218;DHT22;43078;52.972;6.482;2023-03-05T00:51:21;4.80;99.90
57218;DHT22;43078;52.972;6.482;2023-03-05T00:53:47;4.80;99.90
57218;DHT22;43078;52.972;6.482;2023-03-05T00:56:13;4.80;99.90
57218;DHT22;43078;52.972;6.482;2023-03-05T00:58:39;4.80;99.90
57218;DHT22;43078;52.972;6.482;2023-03-05T01:01:05;4.80;99.90
57218;DHT22;43078;52.972;6.482;2023-03-05T01:03:32;4.80;99.90
57218;DHT22;43078;52.972;6.482;2023-03-05T01:05:58;4.80;99.90
57218;DHT22;43078;52.972;6.482;2023-03-05T01:08:25;4.80;99.90
57218;DHT22;43078;52.972;6.482;2023-03-05T01:10:50;4.80;99.90
57218;DHT22;43078;52.972;6.482;2023-03-05T01:13:16;4.80;99.90
57218;DHT22;43078;52.972;6.482;2023-03-05T01:15:42;4.80;99.90
57218;DHT22;43078;52.972;6.482;2023-03-05T01:18:08;4.80;99.90
57218;DHT22;43078;52.972;6.482;2023-03-05T01:20:34;4.80;99.90
57218;DHT22;43078;52.972;6.482;2023-03-05T01:23:00;4.70;99.90
57218;DHT22;43078;52.972;6.482;2023-03-05T01:25:26;4.70;99.90
57218;DHT22;43078;52.972;6.482;2023-03-05T01:27:53;4.70;99.90
57218;DHT22;43078;52.972;6.482;2023-03-05T01:30:19;4.70;99.90
57218;DHT22;43078;52.972;6.482;2023-03-05T01:32:44;4.70;99.90
57218;DHT22;43078;52.972;6.482;2023-03-05T01:35:17;4.70;99.90
57218;DHT22;43078;52.972;6.482;2023-03-05T01:37:43;4.70;99.90
57218;DHT22;43078;52.972;6.482;2023-03-05T01:40:10;4.60;99.90
57218;DHT22;43078;52.972;6.482;2023-03-05T01:42:36;4.60;99.90
57218;DHT22;43078;52.972;6.482;2023-03-05T01:45:08;4.60;99.90
57218;DHT22;43078;52.972;6.482;2023-03-05T01:47:37;4.60;99.90
57218;DHT22;43078;52.972;6.482;2023-03-05T01:50:05;4.60;99.90
57218;DHT22;43078;52.972;6.482;2023-03-05T01:52:33;4.60;99.90
57218;DHT22;43078;52.972;6.482;2023-03-05T01:55:03;4.60;99.90
57218;DHT22;43078;52.972;6.482;2023-03-05T01:57:36;4.50;99.90
57218;DHT22;43078;52.972;6.482;2023-03-05T02:00:08;4.50;99.90
57218;DHT22;43078;52.972;6.482;2023-03-05T02:02:36;4.50;99.90
57218;DHT22;43078;52.972;6.482;2023-03-05T02:05:26;4.50;99.90
57218;DHT22;43078;52.972;6.482;2023-03-05T02:07:59;4.50;99.90
57218;DHT22;43078;52.972;6.482;2023-03-05T02:10:34;4.50;99.90
57218;DHT22;43078;52.972;6.482;2023-03-05T02:13:03;4.40;99.90
57218;DHT22;43078;52.972;6.482;2023-03-05T02:15:30;4.40;99.90
57218;DHT22;43078;52.972;6.482;2023-03-05T02:17:56;4.40;99.90
57218;DHT22;43078;52.972;6.482;2023-03-05T02:20:29;4.40;99.90
57218;DHT22;43078;52.972;6.482;2023-03-05T02:22:55;4.40;99.90
57218;DHT22;43078;52.972;6.482;2023-03-05T02:25:27;4.30;99.90
57218;DHT22;43078;52.972;6.482;2023-03-05T02:30:18;4.30;99.90
57218;DHT22;43078;52.972;6.482;2023-03-05T02:32:44;4.30;99.90
57218;DHT22;43078;52.972;6.482;2023-03-05T02:35:10;4.30;99.90
57218;DHT22;43078;52.972;6.482;2023-03-05T02:37:35;4.30;99.90
57218;DHT22;43078;52.972;6.482;2023-03-05T02:40:01;4.30;99.90
57218;DHT22;43078;52.972;6.482;2023-03-05T02:42:27;4.30;99.90
57218;DHT22;43078;52.972;6.482;2023-03-05T02:44:55;4.30;99.90
57218;DHT22;43078;52.972;6.482;2023-03-05T02:47:20;4.20;99.90
57218;DHT22;43078;52.972;6.482;2023-03-05T02:49:46;4.20;99.90
57218;DHT22;43078;52.972;6.482;2023-03-05T02:52:11;4.20;99.90
57218;DHT22;43078;52.972;6.482;2023-03-05T02:54:37;4.20;99.90
57218;DHT22;43078;52.972;6.482;2023-03-05T02:57:03;4.20;99.90
57218;DHT22;43078;52.972;6.482;2023-03-05T02:59:28;4.20;99.90
57218;DHT22;43078;52.972;6.482;2023-03-05T03:01:54;4.20;99.90
57218;DHT22;43078;52.972;6.482;2023-03-05T03:04:19;4.20;99.90
57218;DHT22;43078;52.972;6.482;2023-03-05T03:06:45;4.10;99.90
57218;DHT22;43078;52.972;6.482;2023-03-05T03:09:11;4.10;99.90
57218;DHT22;43078;52.972;6.482;2023-03-05T03:11:36;4.10;99.90
57218;DHT22;43078;52.972;6.482;2023-03-05T03:14:02;4.10;99.90
57218;DHT22;43078;52.972;6.482;2023-03-05T03:16:27;4.10;99.90
57218;DHT22;43078;52.972;6.482;2023-03-05T03:18:53;4.10;99.90
57218;DHT22;43078;52.972;6.482;2023-03-05T03:21:22;4.10;99.90
57218;DHT22;43078;52.972;6.482;2023-03-05T03:23:48;4.10;99.90
57218;DHT22;43078;52.972;6.482;2023-03-05T03:26:13;4.10;99.90
57218;DHT22;43078;52.972;6.482;2023-03-05T03:28:39;4.10;99.90
57218;DHT22;43078;52.972;6.482;2023-03-05T03:31:05;4.10;99.90
57218;DHT22;43078;52.972;6.482;2023-03-05T03:33:30;4.10;99.90
57218;DHT22;43078;52.972;6.482;2023-03-05T03:35:56;4.10;99.90
57218;DHT22;43078;52.972;6.482;2023-03-05T03:38:22;4.10;99.90
57218;DHT22;43078;52.972;6.482;2023-03-05T03:40:47;4.10;99.90
57218;DHT22;43078;52.972;6.482;2023-03-05T03:43:13;4.10;99.90
57218;DHT22;43078;52.972;6.482;2023-03-05T03:45:43;4.10;99.90
57218;DHT22;43078;52.972;6.482;2023-03-05T03:48:09;4.10;99.90
57218;DHT22;43078;52.972;6.482;2023-03-05T03:50:41;4.10;99.90
57218;DHT22;43078;52.972;6.482;2023-03-05T03:53:08;4.00;99.90
57218;DHT22;43078;52.972;6.482;2023-03-05T03:55:37;4.00;99.90
57218;DHT22;43078;52.972;6.482;2023-03-05T03:58:02;4.00;99.90
57218;DHT22;43078;52.972;6.482;2023-03-05T04:00:28;4.00;99.90
57218;DHT22;43078;52.972;6.482;2023-03-05T04:02:54;4.00;99.90
57218;DHT22;43078;52.972;6.482;2023-03-05T04:05:19;4.00;99.90
57218;DHT22;43078;52.972;6.482;2023-03-05T04:07:45;4.00;99.90
57218;DHT22;43078;52.972;6.482;2023-03-05T04:10:11;4.00;99.90
57218;DHT22;43078;52.972;6.482;2023-03-05T04:12:37;4.00;99.90
57218;DHT22;43078;52.972;6.482;2023-03-05T04:15:03;4.00;99.90
57218;DHT22;43078;52.972;6.482;2023-03-05T04:17:30;4.00;99.90
57218;DHT22;43078;52.972;6.482;2023-03-05T04:19:57;3.90;99.90
57218;DHT22;43078;52.972;6.482;2023-03-05T04:22:22;4.00;99.90
57218;DHT22;43078;52.972;6.482;2023-03-05T04:24:48;3.90;99.90
57218;DHT22;43078;52.972;6.482;2023-03-05T04:27:13;4.00;99.90
57218;DHT22;43078;52.972;6.482;2023-03-05T04:29:39;3.90;99.90
57218;DHT22;43078;52.972;6.482;2023-03-05T04:32:05;3.90;99.90
57218;DHT22;43078;52.972;6.482;2023-03-05T04:34:32;3.90;99.90
57218;DHT22;43078;52.972;6.482;2023-03-05T04:36:58;3.90;99.90
57218;DHT22;43078;52.972;6.482;2023-03-05T04:39:24;3.90;99.90
57218;DHT22;43078;52.972;6.482;2023-03-05T04:41:49;3.90;99.90
57218;DHT22;43078;52.972;6.482;2023-03-05T04:44:15;3.90;99.90
57218;DHT22;43078;52.972;6.482;2023-03-05T04:46:42;3.90;99.90
57218;DHT22;43078;52.972;6.482;2023-03-05T04:49:08;3.90;99.90
57218;DHT22;43078;52.972;6.482;2023-03-05T04:51:33;3.90;99.90
57218;DHT22;43078;52.972;6.482;2023-03-05T04:53:59;3.90;99.90
57218;DHT22;43078;52.972;6.482;2023-03-05T04:56:25;3.90;99.90
57218;DHT22;43078;52.972;6.482;2023-03-05T04:58:50;3.90;99.90
57218;DHT22;43078;52.972;6.482;2023-03-05T05:01:16;3.90;99.90
57218;DHT22;43078;52.972;6.482;2023-03-05T05:03:42;3.90;99.90
57218;DHT22;43078;52.972;6.482;2023-03-05T05:06:07;3.80;99.90
57218;DHT22;43078;52.972;6.482;2023-03-05T05:08:33;3.90;99.90
57218;DHT22;43078;52.972;6.482;2023-03-05T05:11:01;3.90;99.90
57218;DHT22;43078;52.972;6.482;2023-03-05T05:13:28;3.90;99.90
57218;DHT22;43078;52.972;6.482;2023-03-05T05:15:54;3.80;99.90
57218;DHT22;43078;52.972;6.482;2023-03-05T05:18:19;3.80;99.90
57218;DHT22;43078;52.972;6.482;2023-03-05T05:20:45;3.80;99.90
57218;DHT22;43078;52.972;6.482;2023-03-05T05:23:12;3.80;99.90
57218;DHT22;43078;52.972;6.482;2023-03-05T05:25:38;3.80;99.90
57218;DHT22;43078;52.972;6.482;2023-03-05T05:28:04;3.80;99.90
57218;DHT22;43078;52.972;6.482;2023-03-05T05:30:29;3.80;99.90
57218;DHT22;43078;52.972;6.482;2023-03-05T05:32:55;3.80;99.90
57218;DHT22;43078;52.972;6.482;2023-03-05T05:35:21;3.80;99.90
57218;DHT22;43078;52.972;6.482;2023-03-05T05:37:47;3.80;99.90
57218;DHT22;43078;52.972;6.482;2023-03-05T05:40:12;3.90;99.90
57218;DHT22;43078;52.972;6.482;2023-03-05T05:42:38;3.80;99.90
57218;DHT22;43078;52.972;6.482;2023-03-05T05:45:04;3.80;99.90
57218;DHT22;43078;52.972;6.482;2023-03-05T05:47:30;3.80;99.90
57218;DHT22;43078;52.972;6.482;2023-03-05T05:49:56;3.80;99.90
57218;DHT22;43078;52.972;6.482;2023-03-05T05:52:21;3.80;99.90
57218;DHT22;43078;52.972;6.482;2023-03-05T05:54:47;3.80;99.90
57218;DHT22;43078;52.972;6.482;2023-03-05T05:57:13;3.80;99.90
57218;DHT22;43078;52.972;6.482;2023-03-05T05:59:39;3.80;99.90
57218;DHT22;43078;52.972;6.482;2023-03-05T06:02:06;3.80;99.90
57218;DHT22;43078;52.972;6.482;2023-03-05T06:04:35;3.80;99.90
57218;DHT22;43078;52.972;6.482;2023-03-05T06:07:01;3.80;99.90
57218;DHT22;43078;52.972;6.482;2023-03-05T06:09:27;3.80;99.90
57218;DHT22;43078;52.972;6.482;2023-03-05T06:11:53;3.80;99.90
57218;DHT22;43078;52.972;6.482;2023-03-05T06:14:19;3.70;99.90
57218;DHT22;43078;52.972;6.482;2023-03-05T06:16:44;3.70;99.90
57218;DHT22;43078;52.972;6.482;2023-03-05T06:19:14;3.70;99.90
57218;DHT22;43078;52.972;6.482;2023-03-05T06:21:40;3.80;99.90
57218;DHT22;43078;52.972;6.482;2023-03-05T06:24:08;3.80;99.90
57218;DHT22;43078;52.972;6.482;2023-03-05T06:26:34;3.70;99.90
57218;DHT22;43078;52.972;6.482;2023-03-05T06:29:00;3.80;99.90
57218;DHT22;43078;52.972;6.482;2023-03-05T06:31:27;3.70;99.90
57218;DHT22;43078;52.972;6.482;2023-03-05T06:33:56;3.70;99.90
57218;DHT22;43078;52.972;6.482;2023-03-05T06:36:23;3.70;99.90
57218;DHT22;43078;52.972;6.482;2023-03-05T06:38:49;3.70;99.90
57218;DHT22;43078;52.972;6.482;2023-03-05T06:41:19;3.70;99.90
57218;DHT22;43078;52.972;6.482;2023-03-05T06:43:47;3.70;99.90
57218;DHT22;43078;52.972;6.482;2023-03-05T06:46:38;3.70;99.90
57218;DHT22;43078;52.972;6.482;2023-03-05T06:49:26;3.70;99.90
57218;DHT22;43078;52.972;6.482;2023-03-05T06:51:52;3.70;99.90
57218;DHT22;43078;52.972;6.482;2023-03-05T06:54:19;3.60;99.90
57218;DHT22;43078;52.972;6.482;2023-03-05T06:59:57;3.60;99.90
57218;DHT22;43078;52.972;6.482;2023-03-05T07:02:23;3.60;99.90
57218;DHT22;43078;52.972;6.482;2023-03-05T07:04:51;3.70;99.90
57218;DHT22;43078;52.972;6.482;2023-03-05T07:07:19;3.70;99.90
57218;DHT22;43078;52.972;6.482;2023-03-05T07:09:45;3.70;99.90
57218;DHT22;43078;52.972;6.482;2023-03-05T07:12:12;3.60;99.90
57218;DHT22;43078;52.972;6.482;2023-03-05T07:14:38;3.60;99.90
57218;DHT22;43078;52.972;6.482;2023-03-05T07:17:06;3.70;99.90
57218;DHT22;43078;52.972;6.482;2023-03-05T07:19:32;3.60;99.90
57218;DHT22;43078;52.972;6.482;2023-03-05T07:21:58;3.60;99.90
57218;DHT22;43078;52.972;6.482;2023-03-05T07:24:24;3.60;99.90
57218;DHT22;43078;52.972;6.482;2023-03-05T07:26:55;3.60;99.90
57218;DHT22;43078;52.972;6.482;2023-03-05T07:29:22;3.60;99.90
57218;DHT22;43078;52.972;6.482;2023-03-05T07:31:48;3.60;99.90
57218;DHT22;43078;52.972;6.482;2023-03-05T07:34:14;3.60;99.90
57218;DHT22;43078;52.972;6.482;2023-03-05T07:36:39;3.60;99.90
57218;DHT22;43078;52.972;6.482;2023-03-05T07:39:07;3.60;99.90
57218;DHT22;43078;52.972;6.482;2023-03-05T07:41:33;3.60;99.90
57218;DHT22;43078;52.972;6.482;2023-03-05T07:43:59;3.60;99.90
57218;DHT22;43078;52.972;6.482;2023-03-05T07:46:30;3.60;99.90
57218;DHT22;43078;52.972;6.482;2023-03-05T07:48:58;3.60;99.90
57218;DHT22;43078;52.972;6.482;2023-03-05T07:51:25;3.70;99.90
57218;DHT22;43078;52.972;6.482;2023-03-05T07:53:52;3.60;99.90
57218;DHT22;43078;52.972;6.482;2023-03-05T07:58:48;3.70;99.90
57218;DHT22;43078;52.972;6.482;2023-03-05T08:01:14;3.70;99.90
57218;DHT22;43078;52.972;6.482;2023-03-05T08:03:41;3.70;99.90
57218;DHT22;43078;52.972;6.482;2023-03-05T08:06:11;3.70;99.90
57218;DHT22;43078;52.972;6.482;2023-03-05T08:08:37;3.80;99.90
57218;DHT22;43078;52.972;6.482;2023-03-05T08:11:05;3.80;99.90
57218;DHT22;43078;52.972;6.482;2023-03-05T08:13:30;3.80;99.90
57218;DHT22;43078;52.972;6.482;2023-03-05T08:15:56;3.80;99.90
57218;DHT22;43078;52.972;6.482;2023-03-05T08:18:22;3.80;99.90
57218;DHT22;43078;52.972;6.482;2023-03-05T08:20:47;3.90;99.90
57218;DHT22;43078;52.972;6.482;2023-03-05T08:23:13;3.90;99.90
57218;DHT22;43078;52.972;6.482;2023-03-05T08:25:39;3.90;99.90
57218;DHT22;43078;52.972;6.482;2023-03-05T08:28:04;4.00;99.90
57218;DHT22;43078;52.972;6.482;2023-03-05T08:30:30;3.90;99.90
57218;DHT22;43078;52.972;6.482;2023-03-05T08:32:56;4.00;99.90
57218;DHT22;43078;52.972;6.482;2023-03-05T08:35:22;4.00;99.90
57218;DHT22;43078;52.972;6.482;2023-03-05T08:37:48;4.00;99.90
57218;DHT22;43078;52.972;6.482;2023-03-05T08:40:14;4.00;99.90
57218;DHT22;43078;52.972;6.482;2023-03-05T08:42:42;4.10;99.90
57218;DHT22;43078;52.972;6.482;2023-03-05T08:45:08;4.10;99.90
57218;DHT22;43078;52.972;6.482;2023-03-05T08:47:34;4.20;99.90
57218;DHT22;43078;52.972;6.482;2023-03-05T08:49:59;4.20;99.90
57218;DHT22;43078;52.972;6.482;2023-03-05T08:52:25;4.20;99.90
57218;DHT22;43078;52.972;6.482;2023-03-05T08:54:51;4.30;99.90
57218;DHT22;43078;52.972;6.482;2023-03-05T08:57:17;4.30;99.90
57218;DHT22;43078;52.972;6.482;2023-03-05T08:59:43;4.40;99.90
57218;DHT22;43078;52.972;6.482;2023-03-05T09:02:12;4.40;99.90
57218;DHT22;43078;52.972;6.482;2023-03-05T09:04:38;4.50;99.90
57218;DHT22;43078;52.972;6.482;2023-03-05T09:07:04;4.50;99.90
57218;DHT22;43078;52.972;6.482;2023-03-05T09:09:30;4.60;99.90
57218;DHT22;43078;52.972;6.482;2023-03-05T09:11:59;4.60;99.90
57218;DHT22;43078;52.972;6.482;2023-03-05T09:14:25;4.70;99.90
57218;DHT22;43078;52.972;6.482;2023-03-05T09:16:53;4.70;99.90
57218;DHT22;43078;52.972;6.482;2023-03-05T09:19:18;4.80;99.90
57218;DHT22;43078;52.972;6.482;2023-03-05T09:21:44;4.90;99.90
57218;DHT22;43078;52.972;6.482;2023-03-05T09:24:10;4.90;99.90
57218;DHT22;43078;52.972;6.482;2023-03-05T09:26:36;5.00;99.90
57218;DHT22;43078;52.972;6.482;2023-03-05T09:29:02;5.00;99.90
57218;DHT22;43078;52.972;6.482;2023-03-05T09:31:28;5.10;99.90
57218;DHT22;43078;52.972;6.482;2023-03-05T09:33:54;5.20;99.90
57218;DHT22;43078;52.972;6.482;2023-03-05T09:36:22;5.30;99.90
57218;DHT22;43078;52.972;6.482;2023-03-05T09:38:48;5.30;99.90
57218;DHT22;43078;52.972;6.482;2023-03-05T09:42:00;5.40;99.90
57218;DHT22;43078;52.972;6.482;2023-03-05T09:52:27;5.70;99.90
57218;DHT22;43078;52.972;6.482;2023-03-05T09:54:57;5.70;99.90
57218;DHT22;43078;52.972;6.482;2023-03-05T09:57:31;5.80;99.90
57218;DHT22;43078;52.972;6.482;2023-03-05T10:00:04;5.90;99.90
57218;DHT22;43078;52.972;6.482;2023-03-05T10:02:38;5.90;99.90
57218;DHT22;43078;52.972;6.482;2023-03-05T10:05:23;5.90;99.90
57218;DHT22;43078;52.972;6.482;2023-03-05T10:08:04;6.00;99.90
57218;DHT22;43078;52.972;6.482;2023-03-05T10:10:45;6.10;99.90
57218;DHT22;43078;52.972;6.482;2023-03-05T10:13:25;6.10;99.90
57218;DHT22;43078;52.972;6.482;2023-03-05T10:16:33;6.20;99.90
57218;DHT22;43078;52.972;6.482;2023-03-05T10:25:00;6.30;99.90
57218;DHT22;43078;52.972;6.482;2023-03-05T10:27:32;6.30;99.90
57218;DHT22;43078;52.972;6.482;2023-03-05T10:38:31;6.50;99.90
57218;DHT22;43078;52.972;6.482;2023-03-05T10:44:10;6.50;99.90
57218;DHT22;43078;52.972;6.482;2023-03-05T10:46:40;6.50;99.90
57218;DHT22;43078;52.972;6.482;2023-03-05T10:49:34;6.50;99.90
57218;DHT22;43078;52.972;6.482;2023-03-05T10:52:09;6.60;99.90
57218;DHT22;43078;52.972;6.482;2023-03-05T10:54:37;6.60;99.90
57218;DHT22;43078;52.972;6.482;2023-03-05T10:57:25;6.70;99.90
57218;DHT22;43078;52.972;6.482;2023-03-05T11:00:20;6.70;99.90
57218;DHT22;43078;52.972;6.482;2023-03-05T11:03:07;6.70;99.90
57218;DHT22;43078;52.972;6.482;2023-03-05T11:13:31;6.90;99.90
57218;DHT22;43078;52.972;6.482;2023-03-05T11:16:03;7.00;99.90
57218;DHT22;43078;52.972;6.482;2023-03-05T11:18:29;7.10;99.90
57218;DHT22;43078;52.972;6.482;2023-03-05T11:21:28;7.20;99.90
57218;DHT22;43078;52.972;6.482;2023-03-05T11:24:07;7.20;98.80
57218;DHT22;43078;52.972;6.482;2023-03-05T11:26:37;7.20;98.70
57218;DHT22;43078;52.972;6.482;2023-03-05T11:29:17;7.30;98.90
57218;DHT22;43078;52.972;6.482;2023-03-05T11:31:43;7.30;98.70
57218;DHT22;43078;52.972;6.482;2023-03-05T11:39:16;7.50;98.80
57218;DHT22;43078;52.972;6.482;2023-03-05T11:41:55;7.50;98.90
57218;DHT22;43078;52.972;6.482;2023-03-05T11:48:00;7.60;98.40
57218;DHT22;43078;52.972;6.482;2023-03-05T11:50:24;7.60;98.20
57218;DHT22;43078;52.972;6.482;2023-03-05T11:52:57;7.50;98.50
57218;DHT22;43078;52.972;6.482;2023-03-05T11:58:25;7.60;98.20
57218;DHT22;43078;52.972;6.482;2023-03-05T12:00:52;7.60;97.60
57218;DHT22;43078;52.972;6.482;2023-03-05T12:03:20;7.70;97.80
57218;DHT22;43078;52.972;6.482;2023-03-05T12:05:50;7.70;97.80
57218;DHT22;43078;52.972;6.482;2023-03-05T12:08:21;7.70;97.60
57218;DHT22;43078;52.972;6.482;2023-03-05T12:10:50;7.80;97.20
57218;DHT22;43078;52.972;6.482;2023-03-05T12:13:26;7.80;97.00
57218;DHT22;43078;52.972;6.482;2023-03-05T12:18:45;7.90;97.00
57218;DHT22;43078;52.972;6.482;2023-03-05T12:23:55;8.00;97.80
57218;DHT22;43078;52.972;6.482;2023-03-05T12:29:49;8.00;98.50
57218;DHT22;43078;52.972;6.482;2023-03-05T12:34:56;8.00;98.70
57218;DHT22;43078;52.972;6.482;2023-03-05T12:40:02;8.00;98.10
57218;DHT22;43078;52.972;6.482;2023-03-05T12:47:40;8.10;99.00
57218;DHT22;43078;52.972;6.482;2023-03-05T12:55:50;8.20;98.80
57218;DHT22;43078;52.972;6.482;2023-03-05T12:58:39;8.20;98.50
57218;DHT22;43078;52.972;6.482;2023-03-05T13:01:31;8.10;98.50
57218;DHT22;43078;52.972;6.482;2023-03-05T13:04:10;8.10;98.00
57218;DHT22;43078;52.972;6.482;2023-03-05T13:06:39;8.20;98.30
57218;DHT22;43078;52.972;6.482;2023-03-05T13:11:41;8.20;97.60
57218;DHT22;43078;52.972;6.482;2023-03-05T13:14:36;8.20;97.90
57218;DHT22;43078;52.972;6.482;2023-03-05T13:17:03;8.20;97.80
57218;DHT22;43078;52.972;6.482;2023-03-05T13:19:48;8.20;98.30
57218;DHT22;43078;52.972;6.482;2023-03-05T13:22:13;8.30;98.50
57218;DHT22;43078;52.972;6.482;2023-03-05T13:24:39;8.30;97.90
57218;DHT22;43078;52.972;6.482;2023-03-05T13:27:28;8.40;97.90
57218;DHT22;43078;52.972;6.482;2023-03-05T13:29:54;8.30;97.90
57218;DHT22;43078;52.972;6.482;2023-03-05T13:32:30;8.40;98.00
57218;DHT22;43078;52.972;6.482;2023-03-05T13:34:58;8.40;97.80
57218;DHT22;43078;52.972;6.482;2023-03-05T13:37:36;8.40;97.40
57218;DHT22;43078;52.972;6.482;2023-03-05T13:40:28;8.40;97.30
57218;DHT22;43078;52.972;6.482;2023-03-05T13:43:08;8.40;96.90
57218;DHT22;43078;52.972;6.482;2023-03-05T13:45:34;8.40;97.10
57218;DHT22;43078;52.972;6.482;2023-03-05T13:48:03;8.40;97.00
57218;DHT22;43078;52.972;6.482;2023-03-05T13:50:35;8.40;97.00
57218;DHT22;43078;52.972;6.482;2023-03-05T13:55:48;8.30;96.70
57218;DHT22;43078;52.972;6.482;2023-03-05T13:58:43;8.40;97.00
57218;DHT22;43078;52.972;6.482;2023-03-05T14:01:41;8.40;96.60
57218;DHT22;43078;52.972;6.482;2023-03-05T14:07:00;8.30;96.80
57218;DHT22;43078;52.972;6.482;2023-03-05T14:14:45;8.30;96.30
57218;DHT22;43078;52.972;6.482;2023-03-05T14:22:42;8.20;96.50
57218;DHT22;43078;52.972;6.482;2023-03-05T14:25:35;8.10;96.00
57218;DHT22;43078;52.972;6.482;2023-03-05T14:30:49;8.10;96.50
57218;DHT22;43078;52.972;6.482;2023-03-05T14:33:25;8.20;97.00
57218;DHT22;43078;52.972;6.482;2023-03-05T14:35:51;8.10;97.10
57218;DHT22;43078;52.972;6.482;2023-03-05T14:38:29;8.20;97.50
57218;DHT22;43078;52.972;6.482;2023-03-05T14:40:55;8.20;97.30
57218;DHT22;43078;52.972;6.482;2023-03-05T14:43:21;8.20;97.40
57218;DHT22;43078;52.972;6.482;2023-03-05T14:45:47;8.10;96.70
57218;DHT22;43078;52.972;6.482;2023-03-05T14:51:02;8.10;97.20
57218;DHT22;43078;52.972;6.482;2023-03-05T14:53:34;8.10;97.10
57218;DHT22;43078;52.972;6.482;2023-03-05T14:56:02;8.10;97.50
57218;DHT22;43078;52.972;6.482;2023-03-05T14:58:30;8.10;97.50
57218;DHT22;43078;52.972;6.482;2023-03-05T15:00:58;8.10;97.70
57218;DHT22;43078;52.972;6.482;2023-03-05T15:03:24;8.10;97.30
57218;DHT22;43078;52.972;6.482;2023-03-05T15:05:52;8.10;97.40
57218;DHT22;43078;52.972;6.482;2023-03-05T15:08:27;8.10;97.60
57218;DHT22;43078;52.972;6.482;2023-03-05T15:10:53;8.20;98.00
57218;DHT22;43078;52.972;6.482;2023-03-05T15:13:22;8.10;98.10
57218;DHT22;43078;52.972;6.482;2023-03-05T15:15:48;8.10;98.30
57218;DHT22;43078;52.972;6.482;2023-03-05T15:18:19;8.10;98.60
57218;DHT22;43078;52.972;6.482;2023-03-05T15:20:46;8.10;98.80
57218;DHT22;43078;52.972;6.482;2023-03-05T15:23:13;8.20;98.70
57218;DHT22;43078;52.972;6.482;2023-03-05T15:25:39;8.10;98.60
57218;DHT22;43078;52.972;6.482;2023-03-05T15:28:05;8.10;98.70
57218;DHT22;43078;52.972;6.482;2023-03-05T15:30:33;8.10;98.80
57218;DHT22;43078;52.972;6.482;2023-03-05T15:33:03;8.10;98.70
57218;DHT22;43078;52.972;6.482;2023-03-05T15:35:28;8.10;98.40
57218;DHT22;43078;52.972;6.482;2023-03-05T15:37:54;8.10;98.00
57218;DHT22;43078;52.972;6.482;2023-03-05T15:40:21;8.10;98.60
57218;DHT22;43078;52.972;6.482;2023-03-05T15:42:47;8.10;98.90
57218;DHT22;43078;52.972;6.482;2023-03-05T15:45:13;8.10;98.50
57218;DHT22;43078;52.972;6.482;2023-03-05T15:47:39;8.10;98.30
57218;DHT22;43078;52.972;6.482;2023-03-05T15:50:05;8.10;98.20
57218;DHT22;43078;52.972;6.482;2023-03-05T15:52:31;8.10;98.00
57218;DHT22;43078;52.972;6.482;2023-03-05T15:54:59;8.10;98.30
57218;DHT22;43078;52.972;6.482;2023-03-05T15:57:24;8.10;98.50
57218;DHT22;43078;52.972;6.482;2023-03-05T15:59:50;8.00;98.20
57218;DHT22;43078;52.972;6.482;2023-03-05T16:02:16;8.10;98.00
57218;DHT22;43078;52.972;6.482;2023-03-05T16:04:43;8.00;97.50
57218;DHT22;43078;52.972;6.482;2023-03-05T16:07:09;8.00;97.70
57218;DHT22;43078;52.972;6.482;2023-03-05T16:09:38;8.00;97.40
57218;DHT22;43078;52.972;6.482;2023-03-05T16:12:08;7.90;97.90
57218;DHT22;43078;52.972;6.482;2023-03-05T16:14:35;7.90;98.30
57218;DHT22;43078;52.972;6.482;2023-03-05T16:17:02;7.90;98.70
57218;DHT22;43078;52.972;6.482;2023-03-05T16:19:29;7.90;99.10
57218;DHT22;43078;52.972;6.482;2023-03-05T16:21:55;7.90;99.40
57218;DHT22;43078;52.972;6.482;2023-03-05T16:24:21;7.90;98.60
57218;DHT22;43078;52.972;6.482;2023-03-05T16:26:46;7.90;98.00
57218;DHT22;43078;52.972;6.482;2023-03-05T16:29:12;7.80;98.20
57218;DHT22;43078;52.972;6.482;2023-03-05T16:31:38;7.80;98.10
57218;DHT22;43078;52.972;6.482;2023-03-05T16:34:07;7.80;97.40
57218;DHT22;43078;52.972;6.482;2023-03-05T16:36:33;7.70;97.50
57218;DHT22;43078;52.972;6.482;2023-03-05T16:39:02;7.70;97.70
57218;DHT22;43078;52.972;6.482;2023-03-05T16:41:28;7.60;98.10
57218;DHT22;43078;52.972;6.482;2023-03-05T16:43:55;7.70;98.70
57218;DHT22;43078;52.972;6.482;2023-03-05T16:46:22;7.60;99.00
57218;DHT22;43078;52.972;6.482;2023-03-05T16:48:48;7.70;99.40
57218;DHT22;43078;52.972;6.482;2023-03-05T16:51:14;7.60;99.80
57218;DHT22;43078;52.972;6.482;2023-03-05T16:53:40;7.60;99.90
57218;DHT22;43078;52.972;6.482;2023-03-05T16:56:07;7.60;99.90
57218;DHT22;43078;52.972;6.482;2023-03-05T16:58:34;7.60;99.90
57218;DHT22;43078;52.972;6.482;2023-03-05T17:01:01;7.60;99.90
57218;DHT22;43078;52.972;6.482;2023-03-05T17:03:28;7.60;99.90
57218;DHT22;43078;52.972;6.482;2023-03-05T17:05:54;7.60;99.90
57218;DHT22;43078;52.972;6.482;2023-03-05T17:08:20;7.70;99.90
57218;DHT22;43078;52.972;6.482;2023-03-05T17:10:46;7.60;99.90
57218;DHT22;43078;52.972;6.482;2023-03-05T17:13:12;7.60;99.90
57218;DHT22;43078;52.972;6.482;2023-03-05T17:15:37;7.60;99.90
57218;DHT22;43078;52.972;6.482;2023-03-05T17:18:03;7.60;99.90
57218;DHT22;43078;52.972;6.482;2023-03-05T17:20:30;7.60;99.90
57218;DHT22;43078;52.972;6.482;2023-03-05T17:22:57;7.60;99.90
57218;DHT22;43078;52.972;6.482;2023-03-05T17:25:23;7.60;99.90
57218;DHT22;43078;52.972;6.482;2023-03-05T17:27:49;7.60;99.90
57218;DHT22;43078;52.972;6.482;2023-03-05T17:30:15;7.60;99.90
57218;DHT22;43078;52.972;6.482;2023-03-05T17:32:41;7.60;99.90
57218;DHT22;43078;52.972;6.482;2023-03-05T17:35:16;7.60;99.90